createdAt,value
2023-02-19T00:01:22.304Z,98175.69
2023-02-19T00:06:29.099Z,98158.44
2023-02-19T00:11:33.850Z,98163.63
2023-02-19T00:16:39.881Z,98153.31
2023-02-19T00:21:44.680Z,98156.75
2023-02-19T00:26:49.148Z,98144.66
2023-02-19T00:31:52.545Z,98137.78
2023-02-19T00:36:57.392Z,98136.97
2023-02-19T00:42:01.160Z,98139.53
2023-02-19T00:47:04.322Z,98131.78
2023-02-19T00:52:08.951Z,98144.72
2023-02-19T00:57:12.197Z,98131.78
2023-02-19T01:02:15.366Z,98124.91
2023-02-19T01:07:20.586Z,98108.50
2023-02-19T01:12:25.834Z,98103.34
2023-02-19T01:17:29.275Z,98099.03
2023-02-19T01:22:33.978Z,98099.88
2023-02-19T01:27:37.281Z,98094.72
2023-02-19T01:32:40.631Z,98087.81
2023-02-19T01:37:45.292Z,98084.38
2023-02-19T01:42:50.293Z,98087.84
2023-02-19T01:48:10.283Z,98074.88
2023-02-19T01:53:18.702Z,98078.34
2023-02-19T01:58:22.090Z,98082.63
2023-02-19T02:03:26.265Z,98081.78
2023-02-19T02:08:50.463Z,98074.91
2023-02-19T02:13:56.261Z,98073.19
2023-02-19T02:19:07.219Z,98084.38
2023-02-19T02:24:29.985Z,98075.75
2023-02-19T02:30:07.315Z,98076.63
2023-02-19T02:35:19.351Z,98058.53
2023-02-19T02:40:22.971Z,98070.59
2023-02-19T02:45:38.157Z,98063.72
2023-02-19T02:50:45.629Z,98064.56
2023-02-19T02:55:53.322Z,98042.16
2023-02-19T03:01:18.126Z,98039.56
2023-02-19T03:06:25.457Z,98037.84
2023-02-19T03:11:49.667Z,98048.19
2023-02-19T03:17:18.466Z,98036.13
2023-02-19T03:22:26.737Z,98039.56
2023-02-19T03:27:33.537Z,98043.88
2023-02-19T03:32:41.547Z,98036.13
2023-02-19T03:37:48.374Z,98038.72
2023-02-19T03:42:57.957Z,98022.34
2023-02-19T03:48:14.985Z,98020.63
2023-02-19T03:53:28.937Z,98017.16
2023-02-19T03:58:36.313Z,98012.84
2023-02-19T04:03:44.291Z,98014.59
2023-02-19T04:08:52.026Z,98008.53
2023-02-19T04:13:59.892Z,98018.03
2023-02-19T04:19:09.111Z,98001.66
2023-02-19T04:24:15.697Z,98008.56
2023-02-19T04:29:18.952Z,98010.25
2023-02-19T04:34:23.585Z,98011.13
2023-02-19T04:39:26.998Z,98011.97
2023-02-19T04:44:30.272Z,98005.97
2023-02-19T04:49:35.275Z,98005.09
2023-02-19T04:54:38.731Z,98002.53
2023-02-19T04:59:42.071Z,97991.31
2023-02-19T05:04:46.687Z,97993.88
2023-02-19T05:09:49.943Z,97981.81
2023-02-19T05:14:53.365Z,97986.13
2023-02-19T05:19:57.960Z,97981.78
2023-02-19T05:25:01.168Z,97975.69
2023-02-19T05:30:04.635Z,97973.97
2023-02-19T05:35:09.934Z,97973.94
2023-02-19T05:40:13.410Z,97972.16
2023-02-19T05:45:16.741Z,97965.28
2023-02-19T05:50:21.339Z,97967.88
2023-02-19T05:55:24.438Z,97961.78
2023-02-19T06:00:27.979Z,97956.53
2023-02-19T06:05:32.697Z,97959.97
2023-02-19T06:10:37.387Z,97969.44
2023-02-19T06:15:41.165Z,97962.50
2023-02-19T06:20:46.019Z,97963.31
2023-02-19T06:25:49.389Z,97954.66
2023-02-19T06:30:52.834Z,97959.78
2023-02-19T06:36:00.400Z,97960.56
2023-02-19T06:41:04.512Z,97929.41
2023-02-19T06:46:09.424Z,97940.41
2023-02-19T06:51:15.922Z,97936.06
2023-02-19T06:56:25.846Z,97933.31
2023-02-19T07:01:30.686Z,97928.00
2023-02-19T07:06:36.146Z,97934.97
2023-02-19T07:11:41.042Z,97925.41
2023-02-19T07:16:44.786Z,97919.44
2023-02-19T07:21:49.529Z,97913.38
2023-02-19T07:26:52.844Z,97915.09
2023-02-19T07:31:56.201Z,97920.28
2023-02-19T07:37:00.783Z,97909.84
2023-02-19T07:42:04.153Z,97906.34
2023-02-19T07:47:07.360Z,97896.84
2023-02-19T07:52:12.010Z,97897.63
2023-02-19T07:57:15.167Z,97898.34
2023-02-19T08:06:33.309Z,97888.00
2023-02-19T08:11:54.590Z,97886.19
2023-02-19T08:16:58.135Z,97890.50
2023-02-19T08:22:02.832Z,97874.00
2023-02-19T08:27:06.040Z,97872.22
2023-02-19T08:32:09.429Z,97867.88
2023-02-19T08:37:14.490Z,97863.56
2023-02-19T08:42:17.912Z,97865.28
2023-02-19T08:47:21.178Z,97860.00
2023-02-19T08:52:25.985Z,97865.78
2023-02-19T08:57:29.705Z,97847.66
2023-02-19T09:02:32.935Z,97850.13
2023-02-19T09:07:37.573Z,97824.03
2023-02-19T09:12:41.511Z,97840.22
2023-02-19T09:17:45.026Z,97840.22
2023-02-19T09:22:49.743Z,97831.31
2023-02-19T09:27:56.309Z,97819.66
2023-02-19T09:32:59.512Z,97815.94
2023-02-19T09:38:04.167Z,97810.13
2023-02-19T09:43:09.103Z,97808.16
2023-02-19T09:48:13.982Z,97795.28
2023-02-19T09:53:23.045Z,97801.00
2023-02-19T09:58:30.267Z,97796.97
2023-02-19T10:03:39.315Z,97798.00
2023-02-19T10:08:46.870Z,97782.31
2023-02-19T10:13:54.553Z,97792.69
2023-02-19T10:18:58.306Z,97788.34
2023-02-19T10:24:05.846Z,97793.53
2023-02-19T10:29:10.880Z,97789.81
2023-02-19T10:34:22.291Z,97744.50
2023-02-19T10:39:42.359Z,97787.78
2023-02-19T10:44:47.740Z,97781.34
2023-02-19T10:49:52.534Z,97771.38
2023-02-19T10:55:14.817Z,97775.44
2023-02-19T11:00:24.377Z,97765.19
2023-02-19T11:05:27.845Z,97765.47
2023-02-19T11:10:38.685Z,97756.69
2023-02-19T11:15:42.692Z,97765.09
2023-02-19T11:20:51.243Z,97762.63
2023-02-19T11:25:57.795Z,97757.59
2023-02-19T11:31:32.443Z,97752.84
2023-02-19T11:36:37.263Z,97742.84
2023-02-19T11:42:16.561Z,97748.22
2023-02-19T11:47:49.590Z,97744.78
2023-02-19T11:53:05.661Z,97738.25
2023-02-19T11:58:34.364Z,97741.97
2023-02-19T12:03:57.053Z,97741.75
2023-02-19T12:09:34.690Z,97737.16
2023-02-19T12:14:58.275Z,97733.53
2023-02-19T12:20:06.790Z,97747.00
2023-02-19T12:25:42.043Z,97734.91
2023-02-19T12:31:04.082Z,97742.88
2023-02-19T12:36:18.968Z,97745.56
2023-02-19T12:41:33.937Z,97751.44
2023-02-19T12:46:41.069Z,97750.72
2023-02-19T12:51:49.004Z,97758.34
2023-02-19T12:56:59.289Z,97757.88
2023-02-19T13:02:15.066Z,97762.53
2023-02-19T13:07:22.488Z,97761.16
2023-02-19T13:12:30.405Z,97769.16
2023-02-19T13:17:41.471Z,97772.31
2023-02-19T13:23:05.447Z,97776.06
2023-02-19T13:28:27.136Z,97775.38
2023-02-19T13:33:45.196Z,97766.06
2023-02-19T13:38:50.385Z,97761.13
2023-02-19T13:44:01.853Z,97764.56
2023-02-19T13:49:41.228Z,97764.56
2023-02-19T13:54:44.505Z,97757.69
2023-02-19T13:59:48.444Z,97750.09
2023-02-19T14:04:56.102Z,97757.91
2023-02-19T14:10:01.886Z,97738.16
2023-02-19T14:15:51.388Z,97730.56
2023-02-19T14:21:09.083Z,97728.19
2023-02-19T14:26:13.002Z,97724.78
2023-02-19T14:31:31.417Z,97727.50
2023-02-19T14:36:49.002Z,97727.56
2023-02-19T14:41:54.331Z,97736.28
2023-02-19T14:47:01.977Z,97732.84
2023-02-19T14:52:12.171Z,97726.88
2023-02-19T14:57:20.041Z,97721.72
2023-02-19T15:02:26.061Z,97722.59
2023-02-19T15:07:34.721Z,97674.59
2023-02-19T15:12:47.244Z,97716.56
2023-02-19T15:17:52.542Z,97718.38
2023-02-19T15:22:59.747Z,97712.41
2023-02-19T15:28:21.421Z,97708.13
2023-02-19T15:33:24.911Z,97712.41
2023-02-19T15:38:30.083Z,97705.50
2023-02-19T15:43:41.873Z,97708.06
2023-02-19T15:48:50.406Z,97708.06
2023-02-19T15:54:03.360Z,97705.47
2023-02-19T15:59:14.775Z,97699.41
2023-02-19T16:04:19.841Z,97688.16
2023-02-19T16:09:29.164Z,97673.50
2023-02-19T16:14:34.043Z,97663.94
2023-02-19T16:19:47.665Z,97663.13
2023-02-19T16:24:56.357Z,97668.34
2023-02-19T16:30:00.503Z,97669.25
2023-02-19T16:35:03.802Z,97666.72
2023-02-19T16:40:41.003Z,97667.53
2023-02-19T16:45:47.434Z,97675.31
2023-02-19T16:50:51.352Z,97674.44
2023-02-19T16:55:54.762Z,97673.56
2023-02-19T17:00:59.702Z,97663.25
2023-02-19T17:06:03.124Z,97671.88
2023-02-19T17:11:09.136Z,97664.06
2023-02-19T17:16:19.978Z,97660.56
2023-02-19T17:21:25.221Z,97660.56
2023-02-19T17:26:31.283Z,97647.72
2023-02-19T17:31:36.376Z,97642.41
2023-02-19T17:36:40.602Z,97637.28
2023-02-19T17:41:44.651Z,97641.63
2023-02-19T17:46:49.734Z,97640.81
2023-02-19T17:51:52.939Z,97634.78
2023-02-19T17:56:56.566Z,97641.69
2023-02-19T18:02:03.306Z,97628.81
2023-02-19T18:07:06.477Z,97634.03
2023-02-19T18:12:10.477Z,97633.16
2023-02-19T18:17:16.382Z,97631.31
2023-02-19T18:22:19.805Z,97609.91
2023-02-19T18:27:23.715Z,97627.81
2023-02-19T18:32:29.061Z,97622.59
2023-02-19T18:37:34.012Z,97615.63
2023-02-19T18:42:37.557Z,97618.25
2023-02-19T18:47:42.533Z,97619.13
2023-02-19T18:52:47.178Z,97618.34
2023-02-19T18:57:50.753Z,97609.78
2023-02-19T19:02:59.616Z,97613.25
2023-02-19T19:08:02.878Z,97610.69
2023-02-19T19:13:06.728Z,97607.16
2023-02-19T19:18:11.638Z,97603.69
2023-02-19T19:23:15.220Z,97600.19
2023-02-19T19:28:18.632Z,97603.63
2023-02-19T19:33:23.405Z,97597.47
2023-02-19T19:38:26.909Z,97589.63
2023-02-19T19:43:31.264Z,97594.78
2023-02-19T19:48:36.222Z,97602.53
2023-02-19T19:53:39.563Z,97594.72
2023-02-19T19:58:43.034Z,97599.84
2023-02-19T20:03:47.718Z,97599.81
2023-02-19T20:08:50.959Z,97598.91
2023-02-19T20:13:54.200Z,97588.53
2023-02-19T20:18:59.044Z,97593.69
2023-02-19T20:24:03.166Z,97575.50
2023-02-19T20:29:07.239Z,97584.06
2023-02-19T20:34:11.944Z,97580.56
2023-02-19T20:39:16.424Z,97586.63
2023-02-19T20:44:20.763Z,97583.97
2023-02-19T20:49:27.500Z,97581.31
2023-02-19T20:54:33.237Z,97584.75
2023-02-19T20:59:38.687Z,97557.22
2023-02-19T21:04:44.071Z,97587.25
2023-02-19T21:09:47.452Z,97576.00
2023-02-19T21:14:50.875Z,97581.16
2023-02-19T21:19:55.673Z,97581.91
2023-02-19T21:24:59.110Z,97584.44
2023-02-19T21:30:02.477Z,97586.06
2023-02-19T21:35:09.120Z,97580.03
2023-02-19T21:40:13.860Z,97579.13
2023-02-19T21:45:17.590Z,97581.59
2023-02-19T21:50:22.717Z,97575.50
2023-02-19T21:55:25.944Z,97578.94
2023-02-19T22:00:29.232Z,97576.31
2023-02-19T22:05:34.140Z,97577.16
2023-02-19T22:10:39.431Z,97572.03
2023-02-19T22:15:42.804Z,97569.50
2023-02-19T22:20:47.740Z,97569.44
2023-02-19T22:25:51.400Z,97571.13
2023-02-19T22:30:54.816Z,97572.78
2023-02-19T22:35:59.609Z,97583.13
2023-02-19T22:41:04.172Z,97565.06
2023-02-19T22:46:11.752Z,97570.94
2023-02-19T22:51:17.994Z,97565.88
2023-02-19T22:56:23.095Z,97575.28
2023-02-19T23:01:26.688Z,97579.59
2023-02-19T23:06:33.468Z,97512.81
2023-02-19T23:11:39.320Z,97576.13
2023-02-19T23:16:42.798Z,97576.97
2023-02-19T23:21:47.437Z,97581.25
2023-02-19T23:26:52.880Z,97529.03
2023-02-19T23:31:56.530Z,97548.69
2023-02-19T23:37:02.448Z,97576.97
2023-02-19T23:42:05.744Z,97585.56
2023-02-19T23:47:08.938Z,97589.88
2023-02-19T23:52:13.491Z,97565.88
2023-02-19T23:57:16.949Z,97597.53
